Flight Briefing for CPX108

Departure Arrival
Seattle-Tacoma International Airport (KSEA)
Click to view FAA NOTAMS
Daniel K Inouye International Airport (PHNL)
Click to view FAA NOTAMS
Departure Time Arrival Time
N/A N/A
Aircraft Distance
MD-11SF 2329nm
Departure METAR Arrival METAR
KSEA 180453Z 19003KT 10SM SCT026 03/01 A3029 RMK AO2 SLP267 T00280006 PHNL 180453Z 01008KT 10SM FEW020 FEW038 SCT080 21/17 A2995 RMK AO2 SLP141 VCSH NE SHRA DSNT NW T02110167
Suggested Route
HAROB6 HQM SEDAR FOZZI HEKAB A332 HALLI BOARD R464 BITTA MAGGI3


View recent IFR Routes data
Notes



Charts and Procedures

Charts for KSEA
No chart available
Charts for PHNL
No chart available

Ventusky Weather